Auburn, Michigan
Current Conditions -  °F | °C
As of 6:53 AM on Sunday 21 Dec 2014 (Local Time) from KMBS Reporting Station
Overcast Overcast  
Wind Chill: 22°   Ceiling: 1800
Heat Index: 29°   Visibility: 7mi
Dew Point: 24°   Wind: 7mph
Humidity: 82%   Direction: 160°SSE
Pressure: 30.28"   Gusts: NA
Location:  43.6°N, 84.07°W
Report Text: KMBS 211153Z 16006KT 7SM OVC018 M02/M04 A3028 RMK AO2 SLP263 T10171044 11017 21039 55000
Loading
Personal Weather Stations






























Interactive Weather Map New forecast layout! Learn more

10-Day Weather Forecast

Advertisements
Track Severe Weather on mobile